sensor_id;sensor_type;location;lat;lon;timestamp;temperature;humidity
1175;DHT22;576;48.418;10.074;2022-12-18T00:00:06;20.00;52.70
1175;DHT22;576;48.418;10.074;2022-12-18T00:02:39;20.00;52.70
1175;DHT22;576;48.418;10.074;2022-12-18T00:05:08;20.00;52.70
1175;DHT22;576;48.418;10.074;2022-12-18T00:07:36;20.00;52.70
1175;DHT22;576;48.418;10.074;2022-12-18T00:10:06;20.00;52.70
1175;DHT22;576;48.418;10.074;2022-12-18T00:12:34;19.90;52.70
1175;DHT22;576;48.418;10.074;2022-12-18T00:15:05;19.90;52.60
1175;DHT22;576;48.418;10.074;2022-12-18T00:17:33;19.90;52.50
1175;DHT22;576;48.418;10.074;2022-12-18T00:20:01;19.90;52.60
1175;DHT22;576;48.418;10.074;2022-12-18T00:22:30;19.90;52.60
1175;DHT22;576;48.418;10.074;2022-12-18T00:24:58;19.90;52.60
1175;DHT22;576;48.418;10.074;2022-12-18T00:27:26;19.90;52.70
1175;DHT22;576;48.418;10.074;2022-12-18T00:29:54;19.90;52.70
1175;DHT22;576;48.418;10.074;2022-12-18T00:32:24;19.90;52.70
1175;DHT22;576;48.418;10.074;2022-12-18T00:34:52;19.90;52.80
1175;DHT22;576;48.418;10.074;2022-12-18T00:37:20;19.90;52.70
1175;DHT22;576;48.418;10.074;2022-12-18T00:39:50;19.90;52.80
1175;DHT22;576;48.418;10.074;2022-12-18T00:42:19;19.90;52.80
1175;DHT22;576;48.418;10.074;2022-12-18T00:45:05;19.90;52.80
1175;DHT22;576;48.418;10.074;2022-12-18T00:47:40;19.90;52.80
1175;DHT22;576;48.418;10.074;2022-12-18T00:50:09;19.90;52.80
1175;DHT22;576;48.418;10.074;2022-12-18T00:52:40;19.90;52.90
1175;DHT22;576;48.418;10.074;2022-12-18T00:55:09;19.90;52.90
1175;DHT22;576;48.418;10.074;2022-12-18T00:57:37;19.90;52.90
1175;DHT22;576;48.418;10.074;2022-12-18T01:00:08;19.90;52.80
1175;DHT22;576;48.418;10.074;2022-12-18T01:02:36;20.00;52.90
1175;DHT22;576;48.418;10.074;2022-12-18T01:05:08;20.00;52.80
1175;DHT22;576;48.418;10.074;2022-12-18T01:07:36;20.00;52.80
1175;DHT22;576;48.418;10.074;2022-12-18T01:10:06;20.00;52.80
1175;DHT22;576;48.418;10.074;2022-12-18T01:12:35;20.00;52.80
1175;DHT22;576;48.418;10.074;2022-12-18T01:15:04;20.00;52.80
1175;DHT22;576;48.418;10.074;2022-12-18T01:17:33;20.00;52.80
1175;DHT22;576;48.418;10.074;2022-12-18T01:20:01;20.00;52.80
1175;DHT22;576;48.418;10.074;2022-12-18T01:22:31;20.00;52.80
1175;DHT22;576;48.418;10.074;2022-12-18T01:24:59;20.00;52.80
1175;DHT22;576;48.418;10.074;2022-12-18T01:27:27;20.00;52.80
1175;DHT22;576;48.418;10.074;2022-12-18T01:29:56;19.90;52.70
1175;DHT22;576;48.418;10.074;2022-12-18T01:32:25;19.90;52.70
1175;DHT22;576;48.418;10.074;2022-12-18T01:34:53;19.90;52.70
1175;DHT22;576;48.418;10.074;2022-12-18T01:37:21;19.90;52.70
1175;DHT22;576;48.418;10.074;2022-12-18T01:39:52;19.90;52.70
1175;DHT22;576;48.418;10.074;2022-12-18T01:42:21;19.90;52.70
1175;DHT22;576;48.418;10.074;2022-12-18T01:44:59;19.90;52.70
1175;DHT22;576;48.418;10.074;2022-12-18T01:47:32;19.90;52.70
1175;DHT22;576;48.418;10.074;2022-12-18T01:50:03;19.90;52.70
1175;DHT22;576;48.418;10.074;2022-12-18T01:52:32;19.90;52.70
1175;DHT22;576;48.418;10.074;2022-12-18T01:55:05;19.90;52.60
1175;DHT22;576;48.418;10.074;2022-12-18T01:57:33;19.80;52.60
1175;DHT22;576;48.418;10.074;2022-12-18T02:00:14;19.90;52.60
1175;DHT22;576;48.418;10.074;2022-12-18T02:02:44;19.90;52.60
1175;DHT22;576;48.418;10.074;2022-12-18T02:05:15;19.90;52.50
1175;DHT22;576;48.418;10.074;2022-12-18T02:07:53;19.90;52.50
1175;DHT22;576;48.418;10.074;2022-12-18T02:10:30;19.90;52.40
1175;DHT22;576;48.418;10.074;2022-12-18T02:13:04;19.90;52.40
1175;DHT22;576;48.418;10.074;2022-12-18T02:15:40;19.90;52.30
1175;DHT22;576;48.418;10.074;2022-12-18T02:18:14;19.90;52.30
1175;DHT22;576;48.418;10.074;2022-12-18T02:20:50;19.90;52.30
1175;DHT22;576;48.418;10.074;2022-12-18T02:23:36;19.90;52.30
1175;DHT22;576;48.418;10.074;2022-12-18T02:26:15;19.90;52.30
1175;DHT22;576;48.418;10.074;2022-12-18T02:28:46;19.90;52.30
1175;DHT22;576;48.418;10.074;2022-12-18T02:31:23;19.90;52.30
1175;DHT22;576;48.418;10.074;2022-12-18T02:33:56;20.00;52.30
1175;DHT22;576;48.418;10.074;2022-12-18T02:36:28;20.00;52.30
1175;DHT22;576;48.418;10.074;2022-12-18T02:38:58;20.00;52.30
1175;DHT22;576;48.418;10.074;2022-12-18T02:41:29;20.00;52.30
1175;DHT22;576;48.418;10.074;2022-12-18T02:44:01;20.00;52.40
1175;DHT22;576;48.418;10.074;2022-12-18T02:46:36;20.00;52.40
1175;DHT22;576;48.418;10.074;2022-12-18T02:49:17;20.00;52.50
1175;DHT22;576;48.418;10.074;2022-12-18T02:51:53;19.90;52.50
1175;DHT22;576;48.418;10.074;2022-12-18T02:54:37;19.90;52.50
1175;DHT22;576;48.418;10.074;2022-12-18T02:57:16;19.90;52.50
1175;DHT22;576;48.418;10.074;2022-12-18T02:59:55;19.90;52.60
1175;DHT22;576;48.418;10.074;2022-12-18T03:02:31;19.90;52.60
1175;DHT22;576;48.418;10.074;2022-12-18T03:05:07;19.90;52.60
1175;DHT22;576;48.418;10.074;2022-12-18T03:07:40;19.90;52.60
1175;DHT22;576;48.418;10.074;2022-12-18T03:10:14;19.90;52.60
1175;DHT22;576;48.418;10.074;2022-12-18T03:12:49;19.90;52.60
1175;DHT22;576;48.418;10.074;2022-12-18T03:15:22;19.90;52.50
1175;DHT22;576;48.418;10.074;2022-12-18T03:18:02;19.90;52.50
1175;DHT22;576;48.418;10.074;2022-12-18T03:20:34;19.90;52.50
1175;DHT22;576;48.418;10.074;2022-12-18T03:23:07;19.90;52.50
1175;DHT22;576;48.418;10.074;2022-12-18T03:25:40;19.90;52.50
1175;DHT22;576;48.418;10.074;2022-12-18T03:28:12;19.90;52.40
1175;DHT22;576;48.418;10.074;2022-12-18T03:30:44;19.90;52.40
1175;DHT22;576;48.418;10.074;2022-12-18T03:33:16;19.90;52.30
1175;DHT22;576;48.418;10.074;2022-12-18T03:35:50;19.90;52.30
1175;DHT22;576;48.418;10.074;2022-12-18T03:38:18;19.90;52.30
1175;DHT22;576;48.418;10.074;2022-12-18T03:40:56;19.90;52.10
1175;DHT22;576;48.418;10.074;2022-12-18T03:43:36;19.90;52.10
1175;DHT22;576;48.418;10.074;2022-12-18T03:46:15;19.90;52.10
1175;DHT22;576;48.418;10.074;2022-12-18T03:48:47;19.90;52.10
1175;DHT22;576;48.418;10.074;2022-12-18T03:51:22;19.90;52.10
1175;DHT22;576;48.418;10.074;2022-12-18T03:53:55;19.90;52.10
1175;DHT22;576;48.418;10.074;2022-12-18T03:56:32;19.90;52.10
1175;DHT22;576;48.418;10.074;2022-12-18T03:59:04;19.90;51.90
1175;DHT22;576;48.418;10.074;2022-12-18T04:01:37;19.90;51.90
1175;DHT22;576;48.418;10.074;2022-12-18T04:04:07;19.90;51.90
1175;DHT22;576;48.418;10.074;2022-12-18T04:06:38;19.90;51.90
1175;DHT22;576;48.418;10.074;2022-12-18T04:09:10;19.90;51.90
1175;DHT22;576;48.418;10.074;2022-12-18T04:11:42;19.90;51.90
1175;DHT22;576;48.418;10.074;2022-12-18T04:14:15;19.90;52.10
1175;DHT22;576;48.418;10.074;2022-12-18T04:16:46;19.90;52.10
1175;DHT22;576;48.418;10.074;2022-12-18T04:19:17;19.90;52.10
1175;DHT22;576;48.418;10.074;2022-12-18T04:21:49;19.90;52.10
1175;DHT22;576;48.418;10.074;2022-12-18T04:24:17;19.90;52.10
1175;DHT22;576;48.418;10.074;2022-12-18T04:26:55;19.90;52.10
1175;DHT22;576;48.418;10.074;2022-12-18T04:29:28;19.90;52.10
1175;DHT22;576;48.418;10.074;2022-12-18T04:31:57;19.90;52.10
1175;DHT22;576;48.418;10.074;2022-12-18T04:34:27;19.90;52.10
1175;DHT22;576;48.418;10.074;2022-12-18T04:36:56;19.90;52.10
1175;DHT22;576;48.418;10.074;2022-12-18T04:39:25;19.90;52.10
1175;DHT22;576;48.418;10.074;2022-12-18T04:41:59;19.90;52.10
1175;DHT22;576;48.418;10.074;2022-12-18T04:44:29;19.90;52.30
1175;DHT22;576;48.418;10.074;2022-12-18T04:46:57;19.90;52.30
1175;DHT22;576;48.418;10.074;2022-12-18T04:49:25;19.90;52.30
1175;DHT22;576;48.418;10.074;2022-12-18T04:51:53;19.90;52.30
1175;DHT22;576;48.418;10.074;2022-12-18T04:54:21;19.90;52.10
1175;DHT22;576;48.418;10.074;2022-12-18T04:56:49;19.90;52.10
1175;DHT22;576;48.418;10.074;2022-12-18T04:59:18;19.90;52.10
1175;DHT22;576;48.418;10.074;2022-12-18T05:01:47;19.90;52.10
1175;DHT22;576;48.418;10.074;2022-12-18T05:04:16;19.80;52.10
1175;DHT22;576;48.418;10.074;2022-12-18T05:06:44;19.80;52.10
1175;DHT22;576;48.418;10.074;2022-12-18T05:09:13;19.80;52.10
1175;DHT22;576;48.418;10.074;2022-12-18T05:11:41;19.80;52.10
1175;DHT22;576;48.418;10.074;2022-12-18T05:14:09;19.80;52.10
1175;DHT22;576;48.418;10.074;2022-12-18T05:16:37;19.80;52.10
1175;DHT22;576;48.418;10.074;2022-12-18T05:19:07;19.80;51.90
1175;DHT22;576;48.418;10.074;2022-12-18T05:21:35;19.80;51.90
1175;DHT22;576;48.418;10.074;2022-12-18T05:24:04;19.80;51.90
1175;DHT22;576;48.418;10.074;2022-12-18T05:26:32;19.80;51.90
1175;DHT22;576;48.418;10.074;2022-12-18T05:29:00;19.80;51.90
1175;DHT22;576;48.418;10.074;2022-12-18T05:31:28;19.80;51.90
1175;DHT22;576;48.418;10.074;2022-12-18T05:34:03;19.80;51.90
1175;DHT22;576;48.418;10.074;2022-12-18T05:36:32;19.80;51.90
1175;DHT22;576;48.418;10.074;2022-12-18T05:39:01;19.80;51.70
1175;DHT22;576;48.418;10.074;2022-12-18T05:41:29;19.80;51.70
1175;DHT22;576;48.418;10.074;2022-12-18T05:43:58;19.80;51.70
1175;DHT22;576;48.418;10.074;2022-12-18T05:46:26;19.80;51.70
1175;DHT22;576;48.418;10.074;2022-12-18T05:48:55;19.80;51.90
1175;DHT22;576;48.418;10.074;2022-12-18T05:51:23;19.80;51.90
1175;DHT22;576;48.418;10.074;2022-12-18T05:53:52;19.80;51.90
1175;DHT22;576;48.418;10.074;2022-12-18T05:56:21;19.90;51.90
1175;DHT22;576;48.418;10.074;2022-12-18T05:58:51;19.90;51.90
1175;DHT22;576;48.418;10.074;2022-12-18T06:01:23;19.90;51.90
1175;DHT22;576;48.418;10.074;2022-12-18T06:03:51;19.90;51.90
1175;DHT22;576;48.418;10.074;2022-12-18T06:06:21;19.90;52.10
1175;DHT22;576;48.418;10.074;2022-12-18T06:08:52;19.90;52.10
1175;DHT22;576;48.418;10.074;2022-12-18T06:11:21;19.90;52.10
1175;DHT22;576;48.418;10.074;2022-12-18T06:13:51;19.90;52.10
1175;DHT22;576;48.418;10.074;2022-12-18T06:16:25;19.90;52.10
1175;DHT22;576;48.418;10.074;2022-12-18T06:18:55;19.90;52.30
1175;DHT22;576;48.418;10.074;2022-12-18T06:21:23;19.90;52.30
1175;DHT22;576;48.418;10.074;2022-12-18T06:23:53;19.80;52.30
1175;DHT22;576;48.418;10.074;2022-12-18T06:26:21;19.80;52.30
1175;DHT22;576;48.418;10.074;2022-12-18T06:28:54;19.80;52.30
1175;DHT22;576;48.418;10.074;2022-12-18T06:31:23;19.80;52.30
1175;DHT22;576;48.418;10.074;2022-12-18T06:33:51;19.80;52.30
1175;DHT22;576;48.418;10.074;2022-12-18T06:36:19;19.80;52.30
1175;DHT22;576;48.418;10.074;2022-12-18T06:38:47;19.70;52.30
1175;DHT22;576;48.418;10.074;2022-12-18T06:41:19;19.70;52.40
1175;DHT22;576;48.418;10.074;2022-12-18T06:43:48;19.70;52.40
1175;DHT22;576;48.418;10.074;2022-12-18T06:46:19;19.70;52.40
1175;DHT22;576;48.418;10.074;2022-12-18T06:48:49;19.70;52.30
1175;DHT22;576;48.418;10.074;2022-12-18T06:51:18;19.70;52.30
1175;DHT22;576;48.418;10.074;2022-12-18T06:53:47;19.70;52.20
1175;DHT22;576;48.418;10.074;2022-12-18T06:56:17;19.70;52.10
1175;DHT22;576;48.418;10.074;2022-12-18T06:58:45;19.80;52.00
1175;DHT22;576;48.418;10.074;2022-12-18T07:01:16;19.80;52.00
1175;DHT22;576;48.418;10.074;2022-12-18T07:03:44;19.80;51.90
1175;DHT22;576;48.418;10.074;2022-12-18T07:06:14;19.80;51.90
1175;DHT22;576;48.418;10.074;2022-12-18T07:08:42;19.80;51.80
1175;DHT22;576;48.418;10.074;2022-12-18T07:11:10;19.80;51.60
1175;DHT22;576;48.418;10.074;2022-12-18T07:13:40;19.80;51.60
1175;DHT22;576;48.418;10.074;2022-12-18T07:16:10;19.80;51.60
1175;DHT22;576;48.418;10.074;2022-12-18T07:18:47;19.80;51.60
1175;DHT22;576;48.418;10.074;2022-12-18T07:21:17;19.80;51.60
1175;DHT22;576;48.418;10.074;2022-12-18T07:23:45;19.80;51.60
1175;DHT22;576;48.418;10.074;2022-12-18T07:26:16;19.80;51.60
1175;DHT22;576;48.418;10.074;2022-12-18T07:28:46;19.80;51.60
1175;DHT22;576;48.418;10.074;2022-12-18T07:31:16;19.80;51.60
1175;DHT22;576;48.418;10.074;2022-12-18T07:33:47;19.70;51.60
1175;DHT22;576;48.418;10.074;2022-12-18T07:36:16;19.80;51.70
1175;DHT22;576;48.418;10.074;2022-12-18T07:38:46;19.80;51.70
1175;DHT22;576;48.418;10.074;2022-12-18T07:41:15;19.70;51.80
1175;DHT22;576;48.418;10.074;2022-12-18T07:43:44;19.70;51.90
1175;DHT22;576;48.418;10.074;2022-12-18T07:46:14;19.70;52.00
1175;DHT22;576;48.418;10.074;2022-12-18T07:48:43;19.80;52.00
1175;DHT22;576;48.418;10.074;2022-12-18T07:51:15;19.80;52.10
1175;DHT22;576;48.418;10.074;2022-12-18T07:53:44;19.80;52.10
1175;DHT22;576;48.418;10.074;2022-12-18T07:56:16;19.80;52.10
1175;DHT22;576;48.418;10.074;2022-12-18T07:58:54;19.80;52.10
1175;DHT22;576;48.418;10.074;2022-12-18T08:01:23;19.80;52.10
1175;DHT22;576;48.418;10.074;2022-12-18T08:03:52;19.80;52.10
1175;DHT22;576;48.418;10.074;2022-12-18T08:06:20;19.90;52.10
1175;DHT22;576;48.418;10.074;2022-12-18T08:08:51;19.90;51.90
1175;DHT22;576;48.418;10.074;2022-12-18T08:11:19;19.90;51.90
1175;DHT22;576;48.418;10.074;2022-12-18T08:13:47;19.90;51.90
1175;DHT22;576;48.418;10.074;2022-12-18T08:16:16;19.90;51.90
1175;DHT22;576;48.418;10.074;2022-12-18T08:18:47;19.90;51.90
1175;DHT22;576;48.418;10.074;2022-12-18T08:21:18;19.90;51.90
1175;DHT22;576;48.418;10.074;2022-12-18T08:23:48;19.90;51.90
1175;DHT22;576;48.418;10.074;2022-12-18T08:26:17;19.90;51.90
1175;DHT22;576;48.418;10.074;2022-12-18T08:28:47;19.90;51.90
1175;DHT22;576;48.418;10.074;2022-12-18T08:31:17;19.90;51.90
1175;DHT22;576;48.418;10.074;2022-12-18T08:33:49;19.80;51.90
1175;DHT22;576;48.418;10.074;2022-12-18T08:36:18;19.80;51.90
1175;DHT22;576;48.418;10.074;2022-12-18T08:38:46;19.80;51.90
1175;DHT22;576;48.418;10.074;2022-12-18T08:41:16;19.80;51.90
1175;DHT22;576;48.418;10.074;2022-12-18T08:43:45;19.80;51.70
1175;DHT22;576;48.418;10.074;2022-12-18T08:46:35;19.80;51.90
1175;DHT22;576;48.418;10.074;2022-12-18T08:49:06;19.80;51.90
1175;DHT22;576;48.418;10.074;2022-12-18T08:51:37;19.80;51.90
1175;DHT22;576;48.418;10.074;2022-12-18T08:54:06;19.80;51.90
1175;DHT22;576;48.418;10.074;2022-12-18T08:56:34;19.80;51.90
1175;DHT22;576;48.418;10.074;2022-12-18T08:59:03;19.80;51.70
1175;DHT22;576;48.418;10.074;2022-12-18T09:01:32;19.80;51.70
1175;DHT22;576;48.418;10.074;2022-12-18T09:04:01;19.80;51.70
1175;DHT22;576;48.418;10.074;2022-12-18T09:06:31;19.90;51.60
1175;DHT22;576;48.418;10.074;2022-12-18T09:08:59;19.90;51.60
1175;DHT22;576;48.418;10.074;2022-12-18T09:11:28;19.90;51.60
1175;DHT22;576;48.418;10.074;2022-12-18T09:13:57;19.90;51.40
1175;DHT22;576;48.418;10.074;2022-12-18T09:16:27;19.90;51.40
1175;DHT22;576;48.418;10.074;2022-12-18T09:18:59;19.90;51.40
1175;DHT22;576;48.418;10.074;2022-12-18T09:21:29;19.90;51.40
1175;DHT22;576;48.418;10.074;2022-12-18T09:24:04;19.90;51.40
1175;DHT22;576;48.418;10.074;2022-12-18T09:26:35;19.90;51.40
1175;DHT22;576;48.418;10.074;2022-12-18T09:29:06;20.00;51.60
1175;DHT22;576;48.418;10.074;2022-12-18T09:31:35;19.90;51.60
1175;DHT22;576;48.418;10.074;2022-12-18T09:34:04;20.00;51.60
1175;DHT22;576;48.418;10.074;2022-12-18T09:36:32;20.00;51.70
1175;DHT22;576;48.418;10.074;2022-12-18T09:39:00;20.00;51.70
1175;DHT22;576;48.418;10.074;2022-12-18T09:41:44;19.90;51.90
1175;DHT22;576;48.418;10.074;2022-12-18T09:44:19;19.90;51.90
1175;DHT22;576;48.418;10.074;2022-12-18T09:46:52;19.90;52.10
1175;DHT22;576;48.418;10.074;2022-12-18T09:49:23;19.90;52.10
1175;DHT22;576;48.418;10.074;2022-12-18T09:51:56;19.90;52.10
1175;DHT22;576;48.418;10.074;2022-12-18T09:54:29;19.90;52.30
1175;DHT22;576;48.418;10.074;2022-12-18T09:57:01;19.90;52.30
1175;DHT22;576;48.418;10.074;2022-12-18T09:59:34;19.90;52.30
1175;DHT22;576;48.418;10.074;2022-12-18T10:02:14;19.90;52.40
1175;DHT22;576;48.418;10.074;2022-12-18T10:04:43;19.90;52.40
1175;DHT22;576;48.418;10.074;2022-12-18T10:07:16;20.00;52.40
1175;DHT22;576;48.418;10.074;2022-12-18T10:09:53;20.00;52.40
1175;DHT22;576;48.418;10.074;2022-12-18T10:12:32;20.00;52.40
1175;DHT22;576;48.418;10.074;2022-12-18T10:15:10;20.00;52.40
1175;DHT22;576;48.418;10.074;2022-12-18T10:17:46;20.00;52.30
1175;DHT22;576;48.418;10.074;2022-12-18T10:20:23;20.00;52.30
1175;DHT22;576;48.418;10.074;2022-12-18T10:22:59;20.10;52.30
1175;DHT22;576;48.418;10.074;2022-12-18T10:25:36;20.10;52.20
1175;DHT22;576;48.418;10.074;2022-12-18T10:28:12;20.10;52.20
1175;DHT22;576;48.418;10.074;2022-12-18T10:30:41;20.10;52.20
1175;DHT22;576;48.418;10.074;2022-12-18T10:33:12;20.10;52.20
1175;DHT22;576;48.418;10.074;2022-12-18T10:35:42;20.10;52.20
1175;DHT22;576;48.418;10.074;2022-12-18T10:38:23;20.10;52.20
1175;DHT22;576;48.418;10.074;2022-12-18T10:40:54;20.10;52.20
1175;DHT22;576;48.418;10.074;2022-12-18T10:43:26;20.10;52.20
1175;DHT22;576;48.418;10.074;2022-12-18T10:46:00;20.10;52.20
1175;DHT22;576;48.418;10.074;2022-12-18T10:48:30;20.10;52.30
1175;DHT22;576;48.418;10.074;2022-12-18T10:51:00;20.00;52.50
1175;DHT22;576;48.418;10.074;2022-12-18T10:53:41;20.00;52.60
1175;DHT22;576;48.418;10.074;2022-12-18T10:56:10;20.10;52.50
1175;DHT22;576;48.418;10.074;2022-12-18T10:58:40;20.10;52.50
1175;DHT22;576;48.418;10.074;2022-12-18T11:01:10;20.10;52.50
1175;DHT22;576;48.418;10.074;2022-12-18T11:03:40;20.10;52.50
1175;DHT22;576;48.418;10.074;2022-12-18T11:06:11;20.10;52.50
1175;DHT22;576;48.418;10.074;2022-12-18T11:08:41;20.10;52.60
1175;DHT22;576;48.418;10.074;2022-12-18T11:11:19;20.10;52.60
1175;DHT22;576;48.418;10.074;2022-12-18T11:14:03;20.10;52.60
1175;DHT22;576;48.418;10.074;2022-12-18T11:16:36;20.20;52.60
1175;DHT22;576;48.418;10.074;2022-12-18T11:19:19;20.20;52.60
1175;DHT22;576;48.418;10.074;2022-12-18T11:21:49;20.20;52.70
1175;DHT22;576;48.418;10.074;2022-12-18T11:24:23;20.30;52.70
1175;DHT22;576;48.418;10.074;2022-12-18T11:26:55;20.30;52.70
1175;DHT22;576;48.418;10.074;2022-12-18T11:29:32;20.30;52.60
1175;DHT22;576;48.418;10.074;2022-12-18T11:32:32;20.30;52.60
1175;DHT22;576;48.418;10.074;2022-12-18T11:35:10;20.40;52.60
1175;DHT22;576;48.418;10.074;2022-12-18T11:37:40;20.40;52.60
1175;DHT22;576;48.418;10.074;2022-12-18T11:40:14;20.40;52.60
1175;DHT22;576;48.418;10.074;2022-12-18T11:42:50;20.30;52.60
1175;DHT22;576;48.418;10.074;2022-12-18T11:45:29;20.30;53.20
1175;DHT22;576;48.418;10.074;2022-12-18T11:48:02;20.30;53.50
1175;DHT22;576;48.418;10.074;2022-12-18T11:50:41;20.30;53.50
1175;DHT22;576;48.418;10.074;2022-12-18T11:53:11;20.30;53.70
1175;DHT22;576;48.418;10.074;2022-12-18T11:55:47;20.20;53.70
1175;DHT22;576;48.418;10.074;2022-12-18T11:58:27;20.20;53.70
1175;DHT22;576;48.418;10.074;2022-12-18T12:01:03;20.20;53.70
1175;DHT22;576;48.418;10.074;2022-12-18T12:04:00;20.10;53.60
1175;DHT22;576;48.418;10.074;2022-12-18T12:06:37;20.10;53.60
1175;DHT22;576;48.418;10.074;2022-12-18T12:09:11;20.00;53.50
1175;DHT22;576;48.418;10.074;2022-12-18T12:11:56;20.00;53.50
1175;DHT22;576;48.418;10.074;2022-12-18T12:14:39;20.00;53.40
1175;DHT22;576;48.418;10.074;2022-12-18T12:17:16;20.00;53.60
1175;DHT22;576;48.418;10.074;2022-12-18T12:19:51;20.00;53.60
1175;DHT22;576;48.418;10.074;2022-12-18T12:22:24;20.00;53.60
1175;DHT22;576;48.418;10.074;2022-12-18T12:25:13;20.00;53.50
1175;DHT22;576;48.418;10.074;2022-12-18T12:27:52;20.00;53.40
1175;DHT22;576;48.418;10.074;2022-12-18T12:30:30;20.00;53.20
1175;DHT22;576;48.418;10.074;2022-12-18T12:33:18;20.00;53.10
1175;DHT22;576;48.418;10.074;2022-12-18T12:35:55;20.10;53.00
1175;DHT22;576;48.418;10.074;2022-12-18T12:38:31;20.10;52.90
1175;DHT22;576;48.418;10.074;2022-12-18T12:41:04;20.10;52.80
1175;DHT22;576;48.418;10.074;2022-12-18T12:43:57;20.10;52.70
1175;DHT22;576;48.418;10.074;2022-12-18T12:46:26;20.10;52.70
1175;DHT22;576;48.418;10.074;2022-12-18T12:48:58;20.10;52.60
1175;DHT22;576;48.418;10.074;2022-12-18T12:51:29;20.10;52.60
1175;DHT22;576;48.418;10.074;2022-12-18T12:53:59;20.10;52.60
1175;DHT22;576;48.418;10.074;2022-12-18T12:56:37;20.10;52.50
1175;DHT22;576;48.418;10.074;2022-12-18T12:59:15;20.10;52.50
1175;DHT22;576;48.418;10.074;2022-12-18T13:01:52;20.10;52.60
1175;DHT22;576;48.418;10.074;2022-12-18T13:04:32;20.10;52.60
1175;DHT22;576;48.418;10.074;2022-12-18T13:07:06;20.00;52.60
1175;DHT22;576;48.418;10.074;2022-12-18T13:12:55;20.00;52.70
1175;DHT22;576;48.418;10.074;2022-12-18T13:15:32;20.00;52.80
1175;DHT22;576;48.418;10.074;2022-12-18T13:18:18;20.00;52.90
1175;DHT22;576;48.418;10.074;2022-12-18T13:20:49;20.00;53.00
1175;DHT22;576;48.418;10.074;2022-12-18T13:23:41;20.00;53.00
1175;DHT22;576;48.418;10.074;2022-12-18T13:26:32;20.00;53.00
1175;DHT22;576;48.418;10.074;2022-12-18T13:29:04;20.00;53.00
1175;DHT22;576;48.418;10.074;2022-12-18T13:31:59;20.00;53.00
1175;DHT22;576;48.418;10.074;2022-12-18T13:34:29;20.00;52.90
1175;DHT22;576;48.418;10.074;2022-12-18T13:37:36;20.00;52.90
1175;DHT22;576;48.418;10.074;2022-12-18T13:43:35;20.00;52.80
1175;DHT22;576;48.418;10.074;2022-12-18T13:46:23;20.10;52.70
1175;DHT22;576;48.418;10.074;2022-12-18T13:48:55;20.10;52.60
1175;DHT22;576;48.418;10.074;2022-12-18T13:51:24;20.10;52.60
1175;DHT22;576;48.418;10.074;2022-12-18T13:53:55;20.10;52.50
1175;DHT22;576;48.418;10.074;2022-12-18T13:56:26;20.10;52.50
1175;DHT22;576;48.418;10.074;2022-12-18T13:59:18;20.10;52.50
1175;DHT22;576;48.418;10.074;2022-12-18T14:01:54;20.10;52.50
1175;DHT22;576;48.418;10.074;2022-12-18T14:04:27;20.10;52.50
1175;DHT22;576;48.418;10.074;2022-12-18T14:07:00;20.00;52.50
1175;DHT22;576;48.418;10.074;2022-12-18T14:09:33;20.00;52.50
1175;DHT22;576;48.418;10.074;2022-12-18T14:12:03;20.00;52.60
1175;DHT22;576;48.418;10.074;2022-12-18T14:14:52;20.00;52.60
1175;DHT22;576;48.418;10.074;2022-12-18T14:17:23;20.00;52.60
1175;DHT22;576;48.418;10.074;2022-12-18T14:19:52;19.90;52.60
1175;DHT22;576;48.418;10.074;2022-12-18T14:22:21;19.90;52.60
1175;DHT22;576;48.418;10.074;2022-12-18T14:25:10;19.90;52.70
1175;DHT22;576;48.418;10.074;2022-12-18T14:27:43;19.90;52.70
1175;DHT22;576;48.418;10.074;2022-12-18T14:30:26;19.90;53.00
1175;DHT22;576;48.418;10.074;2022-12-18T14:33:04;19.90;53.00
1175;DHT22;576;48.418;10.074;2022-12-18T14:35:34;19.90;53.00
1175;DHT22;576;48.418;10.074;2022-12-18T14:38:21;20.00;53.00
1175;DHT22;576;48.418;10.074;2022-12-18T14:40:54;20.00;52.90
1175;DHT22;576;48.418;10.074;2022-12-18T14:43:29;20.10;52.80
1175;DHT22;576;48.418;10.074;2022-12-18T14:45:59;20.10;52.80
1175;DHT22;576;48.418;10.074;2022-12-18T14:48:37;20.20;52.60
1175;DHT22;576;48.418;10.074;2022-12-18T14:51:15;20.30;52.40
1175;DHT22;576;48.418;10.074;2022-12-18T14:53:46;20.30;52.30
1175;DHT22;576;48.418;10.074;2022-12-18T14:56:23;20.40;52.30
1175;DHT22;576;48.418;10.074;2022-12-18T14:58:53;20.40;52.40
1175;DHT22;576;48.418;10.074;2022-12-18T15:01:24;20.40;52.40
1175;DHT22;576;48.418;10.074;2022-12-18T15:03:56;20.40;52.30
1175;DHT22;576;48.418;10.074;2022-12-18T15:06:30;20.40;52.30
1175;DHT22;576;48.418;10.074;2022-12-18T15:09:01;20.50;52.30
1175;DHT22;576;48.418;10.074;2022-12-18T15:11:35;20.50;52.30
1175;DHT22;576;48.418;10.074;2022-12-18T15:14:32;20.50;52.30
1175;DHT22;576;48.418;10.074;2022-12-18T15:17:04;20.50;52.20
1175;DHT22;576;48.418;10.074;2022-12-18T15:19:40;20.50;52.10
1175;DHT22;576;48.418;10.074;2022-12-18T15:22:25;20.60;52.00
1175;DHT22;576;48.418;10.074;2022-12-18T15:24:54;20.60;51.90
1175;DHT22;576;48.418;10.074;2022-12-18T15:27:29;20.60;51.90
1175;DHT22;576;48.418;10.074;2022-12-18T15:30:21;20.60;51.90
1175;DHT22;576;48.418;10.074;2022-12-18T15:32:51;20.60;51.80
1175;DHT22;576;48.418;10.074;2022-12-18T15:35:23;20.60;51.80
1175;DHT22;576;48.418;10.074;2022-12-18T15:37:52;20.60;51.70
1175;DHT22;576;48.418;10.074;2022-12-18T15:40:22;20.60;51.70
1175;DHT22;576;48.418;10.074;2022-12-18T15:42:53;20.60;51.60
1175;DHT22;576;48.418;10.074;2022-12-18T15:45:39;20.70;51.50
1175;DHT22;576;48.418;10.074;2022-12-18T15:48:19;20.70;51.50
1175;DHT22;576;48.418;10.074;2022-12-18T15:50:50;20.70;51.50
1175;DHT22;576;48.418;10.074;2022-12-18T15:53:19;20.70;51.40
1175;DHT22;576;48.418;10.074;2022-12-18T15:55:47;20.70;51.40
1175;DHT22;576;48.418;10.074;2022-12-18T15:58:32;20.70;51.30
1175;DHT22;576;48.418;10.074;2022-12-18T16:01:01;20.70;51.30
1175;DHT22;576;48.418;10.074;2022-12-18T16:03:29;20.70;51.30
1175;DHT22;576;48.418;10.074;2022-12-18T16:05:59;20.70;51.20
1175;DHT22;576;48.418;10.074;2022-12-18T16:08:30;20.70;51.20
1175;DHT22;576;48.418;10.074;2022-12-18T16:10:58;20.70;51.20
1175;DHT22;576;48.418;10.074;2022-12-18T16:13:27;20.70;51.10
1175;DHT22;576;48.418;10.074;2022-12-18T16:15:55;20.70;51.10
1175;DHT22;576;48.418;10.074;2022-12-18T16:18:23;20.70;51.10
1175;DHT22;576;48.418;10.074;2022-12-18T16:20:51;20.70;51.10
1175;DHT22;576;48.418;10.074;2022-12-18T16:23:22;20.70;51.10
1175;DHT22;576;48.418;10.074;2022-12-18T16:25:51;20.70;51.10
1175;DHT22;576;48.418;10.074;2022-12-18T16:28:19;20.70;51.10
1175;DHT22;576;48.418;10.074;2022-12-18T16:30:47;20.70;51.10
1175;DHT22;576;48.418;10.074;2022-12-18T16:33:15;20.70;51.10
1175;DHT22;576;48.418;10.074;2022-12-18T16:35:51;20.70;51.10
1175;DHT22;576;48.418;10.074;2022-12-18T16:38:19;20.70;51.10
1175;DHT22;576;48.418;10.074;2022-12-18T16:40:49;20.70;51.00
1175;DHT22;576;48.418;10.074;2022-12-18T16:43:37;20.70;51.00